Dover, Michigan
Current Conditions -  °F | °C
As of 10:53 PM on Wednesday 28 Jan 2015 (Local Time) from KARB Reporting Station
Clear Clear  
Wind Chill: 14°   Ceiling: Unl
Heat Index: 24°   Visibility: 10mi
Dew Point: 15°   Wind: 10mph
Humidity: 69%   Direction: 150°SSE
Pressure: 30.11"   Gusts: NA
Location:  42.3528°N, 83.8974°W
Report Text: KARB 290353Z AUTO 15009KT 10SM CLR M04/M09 A3011 RMK AO2 SLP210 T10441094
Loading
Personal Weather Stations






























Interactive Weather Map New forecast layout! Learn more

10-Day Weather Forecast

Advertisements
Track Severe Weather on mobile